Terminal Aerodrome Forecast
Issued by NWS

Home | Current Version | Previous Version | Graphics & Text | Print | Product List | Glossary On
Versions: 1 2 3 4 5 6 7 8 9 10 11 12 13 14
000
FTUS43 KBIS 151100
TAFMOT
TAF
KMOT 151120Z 1512/1612 15019G29KT P6SM BKN250 WS014/17050KT
     FM151600 18023G30KT P6SM BKN210
     FM160000 24013KT P6SM SCT060
     FM160300 30014G22KT P6SM BKN050
     FM160700 35012KT P6SM BKN035 OVC050=

USA.gov is the U.S. government's official web portal to all federal, state and local government web resources and services.